Time;durP1;ratioP1;P1;durP2;ratioP2;P2;SDS_P1;SDS_P2;PMS_P1;PMS_P2;Temp;Humidity;BMP_temperature;BMP_pressure;BME280_temperature;BME280_humidity;BME280_pressure;Samples;Min_cycle;Max_cycle;Signal;HPM_P1;HPM_P2
2023/04/30 00:04:39;;;;;;;;;;;;;;;9.91;100.00;95826.47;10352834;28;1993;-72
2023/04/30 00:09:42;;;;;;;;;;;;;;;9.85;100.00;95830.22;10359543;28;1914;-71
2023/04/30 00:14:44;;;;;;;;;;;;;;;9.73;100.00;95825.09;10344732;28;2306;-71
2023/04/30 00:19:46;;;;;;;;;;;;;;;9.86;100.00;95839.88;10348590;28;1986;-72
2023/04/30 00:24:49;;;;;;;;;;;;;;;9.76;100.00;95840.69;10347905;28;1991;-72
2023/04/30 00:29:52;;;;;;;;;;;;;;;9.69;100.00;95840.16;10350636;28;2346;-71
2023/04/30 00:34:55;;;;;;;;;;;;;;;9.72;100.00;95845.78;10340872;28;2041;-72
2023/04/30 00:39:57;;;;;;;;;;;;;;;9.72;100.00;95851.16;10350606;28;2006;-72
2023/04/30 00:45:00;;;;;;;;;;;;;;;9.71;100.00;95854.91;10352147;28;1970;-72
2023/04/30 00:50:03;;;;;;;;;;;;;;;9.67;100.00;95843.09;10346628;28;5075;-71
2023/04/30 00:55:06;;;;;;;;;;;;;;;9.69;100.00;95846.31;10346172;28;2002;-71
2023/04/30 01:00:10;;;;;;;;;;;;;;;9.73;100.00;95849.25;10343587;28;2073;-73
2023/04/30 01:05:13;;;;;;;;;;;;;;;9.55;100.00;95853.28;10347317;28;2021;-72
2023/04/30 01:10:15;;;;;;;;;;;;;;;9.53;100.00;95862.66;10350080;28;2310;-69
2023/04/30 01:15:18;;;;;;;;;;;;;;;9.39;100.00;95867.72;10352719;28;2219;-72
2023/04/30 01:20:21;;;;;;;;;;;;;;;9.37;100.00;95864.50;10356472;28;2235;-70
2023/04/30 01:25:23;;;;;;;;;;;;;;;9.51;100.00;95862.91;10349720;28;2295;-72
2023/04/30 01:30:26;;;;;;;;;;;;;;;9.56;100.00;95873.66;10358265;28;2019;-71
2023/04/30 01:35:28;;;;;;;;;;;;;;;9.36;100.00;95870.94;10350397;28;2043;-72
2023/04/30 01:40:30;;;;;;;;;;;;;;;9.31;100.00;95876.28;10350410;28;2095;-72
2023/04/30 01:45:33;;;;;;;;;;;;;;;9.38;100.00;95876.84;10355710;28;1977;-72
2023/04/30 01:50:36;;;;;;;;;;;;;;;9.26;100.00;95881.63;10350631;28;5150;-72
2023/04/30 01:55:38;;;;;;;;;;;;;;;9.18;100.00;95883.72;10351753;28;2200;-70
2023/04/30 02:00:41;;;;;;;;;;;;;;;9.15;100.00;95883.44;10353130;28;2235;-70
2023/04/30 02:05:44;;;;;;;;;;;;;;;9.17;100.00;95879.44;10353574;28;2140;-70
2023/04/30 02:10:47;;;;;;;;;;;;;;;9.22;100.00;95881.31;10345465;28;2255;-70
2023/04/30 02:15:49;;;;;;;;;;;;;;;9.29;100.00;95884.59;10358587;28;2322;-71
2023/04/30 02:20:52;;;;;;;;;;;;;;;9.20;100.00;95878.09;10344140;28;2133;-70
2023/04/30 02:25:55;;;;;;;;;;;;;;;9.20;100.00;95886.94;10348952;28;2019;-72
2023/04/30 02:30:57;;;;;;;;;;;;;;;9.16;100.00;95885.88;10356403;28;2195;-72
2023/04/30 02:36:00;;;;;;;;;;;;;;;9.18;100.00;95894.47;10346820;28;2047;-72
2023/04/30 02:41:03;;;;;;;;;;;;;;;9.25;100.00;95888.84;10345485;28;2169;-72
2023/04/30 02:46:06;;;;;;;;;;;;;;;9.24;100.00;95889.13;10345814;28;2093;-72
2023/04/30 02:51:08;;;;;;;;;;;;;;;9.20;100.00;95886.94;10349734;28;5201;-72
2023/04/30 02:56:11;;;;;;;;;;;;;;;9.14;100.00;95906.75;10347544;28;2001;-73
2023/04/30 03:01:14;;;;;;;;;;;;;;;8.99;100.00;95905.91;10351646;28;2098;-72
2023/04/30 03:06:16;;;;;;;;;;;;;;;9.03;100.00;95901.59;10346725;28;1963;-71
2023/04/30 03:11:20;;;;;;;;;;;;;;;9.03;100.00;95901.59;10348656;28;2444;-71
2023/04/30 03:16:22;;;;;;;;;;;;;;;8.96;100.00;95890.31;10348366;28;2035;-73
2023/04/30 03:21:25;;;;;;;;;;;;;;;8.88;100.00;95889.75;10351261;28;2394;-75
2023/04/30 03:26:27;;;;;;;;;;;;;;;8.64;100.00;95894.69;10352852;28;1969;-72
2023/04/30 03:31:29;;;;;;;;;;;;;;;8.65;100.00;95885.59;10349235;28;1986;-71
2023/04/30 03:36:32;;;;;;;;;;;;;;;8.59;100.00;95891.19;10351588;28;2424;-72
2023/04/30 03:41:35;;;;;;;;;;;;;;;8.56;100.00;95878.28;10350581;28;1914;-72
2023/04/30 03:46:37;;;;;;;;;;;;;;;8.51;100.00;95887.09;10350302;28;1979;-72
2023/04/30 03:51:40;;;;;;;;;;;;;;;8.48;100.00;95884.94;10349791;28;4900;-71
2023/04/30 03:56:43;;;;;;;;;;;;;;;8.53;100.00;95881.50;10350436;28;2188;-70
2023/04/30 04:01:46;;;;;;;;;;;;;;;8.62;100.00;95875.38;10344379;28;2191;-71
2023/04/30 04:06:48;;;;;;;;;;;;;;;8.54;100.00;95873.19;10344942;28;1975;-72
2023/04/30 04:11:51;;;;;;;;;;;;;;;8.43;100.00;95870.69;10346881;28;2246;-71
2023/04/30 04:16:54;;;;;;;;;;;;;;;8.42;100.00;95875.25;10350724;28;1962;-73
2023/04/30 04:21:57;;;;;;;;;;;;;;;8.29;100.00;95875.66;10349284;28;2267;-71
2023/04/30 04:27:01;;;;;;;;;;;;;;;8.30;100.00;95888.78;10343206;28;2007;-72
2023/04/30 04:32:04;;;;;;;;;;;;;;;8.33;100.00;95895.50;10347600;28;2032;-71
2023/04/30 04:37:07;;;;;;;;;;;;;;;8.51;100.00;95900.50;10355089;28;1916;-70
2023/04/30 04:42:10;;;;;;;;;;;;;;;8.53;100.00;95908.28;10350147;28;2006;-71
2023/04/30 04:47:13;;;;;;;;;;;;;;;8.81;100.00;95915.16;10355251;28;1999;-71
2023/04/30 04:52:15;;;;;;;;;;;;;;;8.75;100.00;95908.97;10356582;28;1989;-72
2023/04/30 04:57:18;;;;;;;;;;;;;;;8.66;100.00;95908.66;10351496;28;2058;-72
2023/04/30 05:02:22;;;;;;;;;;;;;;;8.97;100.00;95906.16;10356061;28;1967;-71
2023/04/30 05:07:24;;;;;;;;;;;;;;;9.04;100.00;95909.41;10351463;28;1990;-72
2023/04/30 05:12:27;;;;;;;;;;;;;;;9.15;100.00;95918.31;10355458;28;1984;-72
2023/04/30 05:17:29;;;;;;;;;;;;;;;9.17;100.00;95916.19;10353967;28;2049;-72
2023/04/30 05:22:32;;;;;;;;;;;;;;;9.15;100.00;95916.41;10354680;28;2077;-72
2023/04/30 05:27:34;;;;;;;;;;;;;;;9.31;100.00;95924.56;10342546;28;2086;-72
2023/04/30 05:32:37;;;;;;;;;;;;;;;9.15;100.00;95921.78;10353619;28;2266;-71
2023/04/30 05:37:39;;;;;;;;;;;;;;;9.28;100.00;95927.75;10351593;28;1935;-70
2023/04/30 05:42:42;;;;;;;;;;;;;;;9.05;100.00;95926.31;10348518;28;2230;-71
2023/04/30 05:47:45;;;;;;;;;;;;;;;9.26;100.00;95928.00;10346894;28;2105;-73
2023/04/30 05:52:47;;;;;;;;;;;;;;;9.31;100.00;95932.59;10353077;28;2000;-71
2023/04/30 05:57:49;;;;;;;;;;;;;;;9.53;100.00;95933.22;10355788;28;1915;-72
2023/04/30 06:02:52;;;;;;;;;;;;;;;9.65;100.00;95917.69;10356308;28;1991;-72
2023/04/30 06:07:55;;;;;;;;;;;;;;;9.73;100.00;95917.22;10351391;28;2020;-72
2023/04/30 06:12:57;;;;;;;;;;;;;;;9.99;100.00;95911.91;10338863;28;2221;-72
2023/04/30 06:18:00;;;;;;;;;;;;;;;9.98;100.00;95915.63;10359794;28;2230;-71
2023/04/30 06:23:02;;;;;;;;;;;;;;;10.19;100.00;95909.22;10348584;28;1993;-71
2023/04/30 06:28:07;;;;;;;;;;;;;;;10.73;100.00;95915.97;10358680;28;1928;-71
2023/04/30 06:33:09;;;;;;;;;;;;;;;11.04;100.00;95898.69;10347657;28;2207;-70
2023/04/30 06:38:12;;;;;;;;;;;;;;;10.98;100.00;95907.03;10353742;28;1963;-71
2023/04/30 06:43:14;;;;;;;;;;;;;;;10.77;100.00;95903.59;10352205;28;2004;-73
2023/04/30 06:48:16;;;;;;;;;;;;;;;11.08;100.00;95904.34;10355816;28;1961;-75
2023/04/30 06:53:19;;;;;;;;;;;;;;;11.27;100.00;95897.28;10350117;28;5281;-72
2023/04/30 06:58:21;;;;;;;;;;;;;;;12.09;100.00;95903.09;10349014;28;2125;-71
2023/04/30 07:03:24;;;;;;;;;;;;;;;12.35;100.00;95895.63;10346028;28;2126;-71
2023/04/30 07:08:26;;;;;;;;;;;;;;;12.02;100.00;95891.81;10353837;28;2006;-73
2023/04/30 07:13:29;;;;;;;;;;;;;;;12.01;100.00;95892.88;10342955;28;2038;-70
2023/04/30 07:18:31;;;;;;;;;;;;;;;12.57;100.00;95886.28;10355468;28;2168;-72
2023/04/30 07:23:34;;;;;;;;;;;;;;;12.69;100.00;95894.81;10356809;28;2063;-71
2023/04/30 07:28:36;;;;;;;;;;;;;;;12.04;100.00;95891.53;10357939;28;2117;-72
2023/04/30 07:33:39;;;;;;;;;;;;;;;12.19;100.00;95888.72;10356868;28;1960;-72
2023/04/30 07:38:41;;;;;;;;;;;;;;;12.56;100.00;95890.06;10347839;28;2025;-72
2023/04/30 07:43:43;;;;;;;;;;;;;;;12.49;100.00;95892.28;10351592;28;2302;-71
2023/04/30 07:48:46;;;;;;;;;;;;;;;12.76;100.00;95897.16;10344866;28;2089;-71
2023/04/30 07:53:48;;;;;;;;;;;;;;;13.19;100.00;95877.28;10343980;28;1978;-72
2023/04/30 07:58:51;;;;;;;;;;;;;;;12.52;100.00;95884.41;10350467;28;2044;-71
2023/04/30 08:03:53;;;;;;;;;;;;;;;12.33;100.00;95887.00;10342073;28;2024;-72
2023/04/30 08:08:56;;;;;;;;;;;;;;;12.62;100.00;95886.25;10350521;28;2180;-71
2023/04/30 08:13:58;;;;;;;;;;;;;;;12.91;100.00;95889.72;10349024;28;1982;-72
2023/04/30 08:19:00;;;;;;;;;;;;;;;13.35;100.00;95886.03;10350522;28;1975;-71
2023/04/30 08:24:03;;;;;;;;;;;;;;;13.23;100.00;95881.06;10355159;28;1882;-71
2023/04/30 08:29:07;;;;;;;;;;;;;;;13.59;100.00;95877.13;10357264;28;1981;-70
2023/04/30 08:34:09;;;;;;;;;;;;;;;13.36;100.00;95881.44;10355819;28;1911;-72
2023/04/30 08:39:11;;;;;;;;;;;;;;;13.52;100.00;95880.97;10359204;28;1995;-72
2023/04/30 08:44:14;;;;;;;;;;;;;;;13.30;100.00;95883.41;10356189;28;1813;-74
2023/04/30 08:49:16;;;;;;;;;;;;;;;13.14;100.00;95873.84;10363083;28;4939;-70
2023/04/30 08:54:19;;;;;;;;;;;;;;;13.89;100.00;95874.00;10349461;28;1889;-71
2023/04/30 08:59:22;;;;;;;;;;;;;;;13.70;100.00;95884.00;10339180;28;1949;-72
2023/04/30 09:04:24;;;;;;;;;;;;;;;13.92;100.00;95889.63;10352265;28;2064;-73
2023/04/30 09:09:26;;;;;;;;;;;;;;;13.94;100.00;95883.94;10351589;28;2007;-71
2023/04/30 09:14:29;;;;;;;;;;;;;;;13.74;100.00;95893.13;10354807;28;1892;-70
2023/04/30 09:19:31;;;;;;;;;;;;;;;13.86;100.00;95877.28;10350093;28;1911;-73
2023/04/30 09:24:34;;;;;;;;;;;;;;;13.61;100.00;95877.63;10356868;28;1845;-71
2023/04/30 09:29:37;;;;;;;;;;;;;;;14.06;100.00;95882.41;10366626;28;1992;-70
2023/04/30 09:34:40;;;;;;;;;;;;;;;14.56;100.00;95882.72;10340693;28;1917;-71
2023/04/30 09:39:43;;;;;;;;;;;;;;;14.34;100.00;95887.94;10354412;28;2126;-72
2023/04/30 09:44:45;;;;;;;;;;;;;;;14.70;100.00;95882.78;10358851;28;1906;-70
2023/04/30 09:49:50;;;;;;;;;;;;;;;14.18;100.00;95883.84;10356448;28;5067;-74
2023/04/30 09:54:52;;;;;;;;;;;;;;;13.97;100.00;95883.34;10358162;28;2178;-71
2023/04/30 09:59:57;;;;;;;;;;;;;;;13.67;100.00;95881.88;10346519;28;2142;-71
2023/04/30 10:04:59;;;;;;;;;;;;;;;13.72;100.00;95882.59;10352633;28;2051;-72
2023/04/30 10:10:03;;;;;;;;;;;;;;;13.95;100.00;95883.66;10351798;28;1974;-71
2023/04/30 10:15:06;;;;;;;;;;;;;;;14.26;100.00;95875.09;10353054;28;1954;-72
2023/04/30 10:20:08;;;;;;;;;;;;;;;14.94;100.00;95877.22;10355347;28;1896;-73
2023/04/30 10:25:12;;;;;;;;;;;;;;;14.97;100.00;95876.63;10357448;28;2323;-71
2023/04/30 10:30:14;;;;;;;;;;;;;;;15.24;100.00;95864.22;10351400;28;1918;-72
2023/04/30 10:35:18;;;;;;;;;;;;;;;14.99;100.00;95863.59;10355615;28;1912;-72
2023/04/30 10:40:20;;;;;;;;;;;;;;;15.23;100.00;95849.88;10356124;28;1945;-72
2023/04/30 10:45:23;;;;;;;;;;;;;;;15.57;100.00;95852.13;10359707;28;1842;-72
2023/04/30 10:50:25;;;;;;;;;;;;;;;15.25;100.00;95838.72;10359858;28;4800;-71
2023/04/30 10:55:28;;;;;;;;;;;;;;;15.52;100.00;95835.97;10362836;28;1603;-72
2023/04/30 11:00:31;;;;;;;;;;;;;;;15.22;100.00;95842.84;10354484;28;2182;-72
2023/04/30 11:05:34;;;;;;;;;;;;;;;15.59;100.00;95833.69;10349824;28;1902;-71
2023/04/30 11:10:36;;;;;;;;;;;;;;;15.97;100.00;95833.44;10352692;28;1985;-71
2023/04/30 11:15:39;;;;;;;;;;;;;;;15.50;100.00;95829.28;10352473;28;1873;-71
2023/04/30 11:20:41;;;;;;;;;;;;;;;15.79;100.00;95810.00;10354173;28;1951;-73
2023/04/30 11:25:44;;;;;;;;;;;;;;;16.02;97.59;95819.75;10351137;28;1959;-72
2023/04/30 11:30:46;;;;;;;;;;;;;;;15.87;95.10;95817.38;10333163;28;1973;-73
2023/04/30 11:35:51;;;;;;;;;;;;;;;15.59;90.93;95805.81;10351872;28;1926;-72
2023/04/30 11:40:55;;;;;;;;;;;;;;;15.05;98.81;95818.28;10353317;28;1897;-73
2023/04/30 11:45:57;;;;;;;;;;;;;;;15.23;100.00;95808.44;10351373;28;2022;-74
2023/04/30 11:51:00;;;;;;;;;;;;;;;15.25;100.00;95812.44;10353123;28;4954;-72
2023/04/30 11:56:02;;;;;;;;;;;;;;;15.49;100.00;95812.22;10350890;28;2117;-72
2023/04/30 12:01:05;;;;;;;;;;;;;;;15.74;98.66;95802.78;10353861;28;1989;-73
2023/04/30 12:06:07;;;;;;;;;;;;;;;15.67;99.81;95805.91;10351190;28;2375;-73
2023/04/30 12:11:10;;;;;;;;;;;;;;;15.86;100.00;95802.25;10353838;28;1914;-71
2023/04/30 12:16:16;;;;;;;;;;;;;;;15.99;98.77;95804.09;10352381;28;1920;-73
2023/04/30 12:21:19;;;;;;;;;;;;;;;15.58;100.00;95804.97;10344956;28;1891;-72
2023/04/30 12:26:21;;;;;;;;;;;;;;;15.91;99.85;95799.41;10354193;28;1861;-71
2023/04/30 12:31:23;;;;;;;;;;;;;;;15.92;100.00;95792.88;10350924;28;2083;-72
2023/04/30 12:36:26;;;;;;;;;;;;;;;15.89;98.48;95794.28;10355060;28;2100;-73
2023/04/30 12:41:29;;;;;;;;;;;;;;;15.91;100.00;95799.41;10351892;28;1907;-73
2023/04/30 12:46:31;;;;;;;;;;;;;;;15.37;99.87;95791.06;10352009;28;2003;-73
2023/04/30 12:51:34;;;;;;;;;;;;;;;15.60;100.00;95785.72;10350629;28;2059;-74
2023/04/30 12:56:37;;;;;;;;;;;;;;;16.39;96.13;95779.81;10350343;28;2086;-73
2023/04/30 13:01:40;;;;;;;;;;;;;;;16.71;93.23;95781.44;10363084;28;1825;-73
2023/04/30 13:06:42;;;;;;;;;;;;;;;15.74;99.07;95756.69;10360776;28;1936;-72
2023/04/30 13:11:46;;;;;;;;;;;;;;;15.77;96.63;95753.38;10372231;28;2045;-72
2023/04/30 13:16:48;;;;;;;;;;;;;;;16.05;97.93;95747.84;10362634;28;1933;-73
2023/04/30 13:21:50;;;;;;;;;;;;;;;15.41;100.00;95739.81;10364231;28;1830;-72
2023/04/30 13:26:53;;;;;;;;;;;;;;;15.85;100.00;95744.53;10363491;28;2115;-71
2023/04/30 13:31:55;;;;;;;;;;;;;;;15.39;99.08;95736.59;10354518;28;1981;-73
2023/04/30 13:36:58;;;;;;;;;;;;;;;15.57;97.85;95732.13;10364875;28;1906;-74
2023/04/30 13:42:01;;;;;;;;;;;;;;;15.79;92.71;95713.22;10368494;28;1829;-71
2023/04/30 13:47:03;;;;;;;;;;;;;;;16.08;91.41;95720.91;10360271;28;2051;-71
2023/04/30 13:52:05;;;;;;;;;;;;;;;15.96;89.63;95715.22;10357213;28;4911;-70
2023/04/30 13:57:08;;;;;;;;;;;;;;;15.39;91.00;95709.50;10354970;28;1978;-73
2023/04/30 14:02:10;;;;;;;;;;;;;;;15.46;91.55;95714.50;10368711;28;1889;-74
2023/04/30 14:07:13;;;;;;;;;;;;;;;15.40;90.99;95703.00;10368457;28;1948;-71
2023/04/30 14:12:15;;;;;;;;;;;;;;;15.64;92.77;95700.03;10370769;28;1918;-72
2023/04/30 14:17:17;;;;;;;;;;;;;;;15.61;88.16;95700.63;10370373;28;1829;-74
2023/04/30 14:22:20;;;;;;;;;;;;;;;15.83;88.39;95692.50;10374337;28;1875;-72
2023/04/30 14:27:22;;;;;;;;;;;;;;;15.89;88.72;95690.47;10371095;28;1825;-74
2023/04/30 14:32:25;;;;;;;;;;;;;;;15.86;92.30;95689.19;10372892;28;1898;-73
2023/04/30 14:37:28;;;;;;;;;;;;;;;15.94;92.71;95684.94;10359275;28;1881;-72
2023/04/30 14:42:30;;;;;;;;;;;;;;;16.01;91.22;95681.78;10353633;28;1995;-72
2023/04/30 14:47:33;;;;;;;;;;;;;;;15.72;94.72;95676.84;10353666;28;1892;-72
2023/04/30 14:52:35;;;;;;;;;;;;;;;16.02;92.22;95665.19;10358743;28;4946;-74
2023/04/30 14:57:38;;;;;;;;;;;;;;;15.67;90.81;95673.13;10355178;28;1940;-73
2023/04/30 15:02:40;;;;;;;;;;;;;;;15.74;91.15;95677.31;10355998;28;1869;-72
2023/04/30 15:07:43;;;;;;;;;;;;;;;16.10;87.18;95686.16;10353196;28;2182;-72
2023/04/30 15:12:45;;;;;;;;;;;;;;;15.93;88.64;95688.75;10355109;28;1906;-73
2023/04/30 15:17:48;;;;;;;;;;;;;;;16.14;89.52;95689.84;10338837;28;1985;-71
2023/04/30 15:22:52;;;;;;;;;;;;;;;16.10;90.29;95678.03;10357962;28;1869;-76
2023/04/30 15:27:54;;;;;;;;;;;;;;;16.66;86.49;95670.25;10359702;28;1937;-72
2023/04/30 15:32:57;;;;;;;;;;;;;;;15.88;89.36;95667.19;10361242;28;1914;-71
2023/04/30 15:37:59;;;;;;;;;;;;;;;15.48;93.92;95663.53;10354066;28;2334;-72
2023/04/30 15:43:02;;;;;;;;;;;;;;;15.39;94.37;95668.88;10362540;28;1438;-73
2023/04/30 15:48:04;;;;;;;;;;;;;;;15.67;95.01;95667.69;10357731;28;1558;-73
2023/04/30 15:53:07;;;;;;;;;;;;;;;15.59;92.10;95663.00;10350356;28;5232;-77
2023/04/30 15:58:09;;;;;;;;;;;;;;;15.24;94.40;95661.13;10344134;28;1602;-73
2023/04/30 16:03:12;;;;;;;;;;;;;;;15.01;94.24;95655.66;10365275;28;1525;-73
2023/04/30 16:08:14;;;;;;;;;;;;;;;14.89;94.01;95652.69;10358924;28;1620;-73
2023/04/30 16:13:17;;;;;;;;;;;;;;;15.17;92.93;95664.25;10362356;28;1902;-73
2023/04/30 16:18:20;;;;;;;;;;;;;;;15.04;94.12;95663.16;10351377;28;1591;-72
2023/04/30 16:23:23;;;;;;;;;;;;;;;14.67;95.49;95655.31;10344617;28;1842;-71
2023/04/30 16:28:27;;;;;;;;;;;;;;;14.65;94.96;95646.72;10360856;28;1528;-77
2023/04/30 16:33:29;;;;;;;;;;;;;;;14.77;93.71;95649.69;10354918;28;2130;-73
2023/04/30 16:38:32;;;;;;;;;;;;;;;14.79;94.11;95636.66;10366002;28;1912;-75
2023/04/30 16:43:35;;;;;;;;;;;;;;;14.74;94.09;95642.19;10367563;28;1487;-72
2023/04/30 16:48:37;;;;;;;;;;;;;;;14.79;95.56;95642.06;10342353;28;4970;-74
2023/04/30 16:53:40;;;;;;;;;;;;;;;14.58;97.71;95636.28;10353157;28;1911;-76
2023/04/30 16:58:42;;;;;;;;;;;;;;;14.43;99.86;95634.66;10358806;28;1513;-78
2023/04/30 17:03:45;;;;;;;;;;;;;;;14.47;100.00;95635.69;10376309;28;1430;-78
2023/04/30 17:08:48;;;;;;;;;;;;;;;14.39;100.00;95638.28;10364487;28;1488;-78
2023/04/30 17:13:52;;;;;;;;;;;;;;;14.28;99.42;95643.06;10375807;28;1906;-75
2023/04/30 17:18:55;;;;;;;;;;;;;;;14.03;99.54;95650.56;10379165;28;1375;-75
2023/04/30 17:23:58;;;;;;;;;;;;;;;13.90;98.91;95642.44;10377998;28;1469;-76
2023/04/30 17:29:00;;;;;;;;;;;;;;;13.94;99.62;95644.25;10368104;28;1550;-77
2023/04/30 17:34:12;;;;;;;;;;;;;;;13.72;99.35;95646.78;10363204;28;1906;-76
2023/04/30 17:39:22;;;;;;;;;;;;;;;13.62;100.00;95652.38;10371807;28;1849;-75
2023/04/30 17:44:25;;;;;;;;;;;;;;;13.41;100.00;95652.69;10364587;28;1784;-78
2023/04/30 17:49:27;;;;;;;;;;;;;;;13.28;100.00;95656.13;10352845;28;4845;-76
2023/04/30 17:54:29;;;;;;;;;;;;;;;13.15;100.00;95656.84;10362483;28;1977;-79
2023/04/30 17:59:32;;;;;;;;;;;;;;;12.96;100.00;95646.84;10369735;28;1905;-78
2023/04/30 18:04:35;;;;;;;;;;;;;;;12.85;100.00;95648.09;10365699;28;1880;-78
2023/04/30 18:09:37;;;;;;;;;;;;;;;12.74;100.00;95660.09;10367553;28;2003;-79
2023/04/30 18:14:40;;;;;;;;;;;;;;;12.58;100.00;95651.41;10353858;28;1910;-79
2023/04/30 18:19:43;;;;;;;;;;;;;;;12.48;100.00;95662.31;10365698;28;2146;-79
2023/04/30 18:24:45;;;;;;;;;;;;;;;12.34;100.00;95651.44;10356731;28;1908;-78
2023/04/30 18:29:49;;;;;;;;;;;;;;;12.25;100.00;95653.13;10366233;28;2486;-77
2023/04/30 18:34:51;;;;;;;;;;;;;;;12.17;100.00;95643.00;10358475;28;1977;-77
2023/04/30 18:39:54;;;;;;;;;;;;;;;12.07;100.00;95662.75;10361522;28;1892;-77
2023/04/30 18:44:57;;;;;;;;;;;;;;;11.98;100.00;95652.91;10356343;28;1937;-76
2023/04/30 18:50:00;;;;;;;;;;;;;;;11.87;100.00;95655.69;10335961;28;2001;-77
2023/04/30 18:55:05;;;;;;;;;;;;;;;11.81;100.00;95656.03;10357557;28;2014;-79
2023/04/30 19:00:08;;;;;;;;;;;;;;;11.71;100.00;95664.19;10358834;28;2050;-77
2023/04/30 19:05:10;;;;;;;;;;;;;;;11.62;100.00;95662.06;10349033;28;1870;-78
2023/04/30 19:10:13;;;;;;;;;;;;;;;11.54;100.00;95669.97;10356747;28;2035;-81
2023/04/30 19:15:16;;;;;;;;;;;;;;;11.43;100.00;95671.13;10366380;28;1910;-80
2023/04/30 19:20:19;;;;;;;;;;;;;;;11.37;100.00;95665.78;10366139;28;1977;-80
2023/04/30 19:25:22;;;;;;;;;;;;;;;11.26;100.00;95664.28;10362244;28;2202;-77
2023/04/30 19:30:24;;;;;;;;;;;;;;;11.14;100.00;95666.50;10359126;28;1842;-80
2023/04/30 19:35:27;;;;;;;;;;;;;;;11.07;100.00;95669.50;10350808;28;1902;-78
2023/04/30 19:40:29;;;;;;;;;;;;;;;11.00;100.00;95662.81;10363441;28;1864;-78
2023/04/30 19:45:31;;;;;;;;;;;;;;;10.87;100.00;95669.59;10354868;28;2012;-77
2023/04/30 19:50:34;;;;;;;;;;;;;;;10.90;100.00;95670.94;10332877;28;4871;-77
2023/04/30 19:55:36;;;;;;;;;;;;;;;10.75;100.00;95678.03;10349719;28;1958;-77
2023/04/30 20:00:38;;;;;;;;;;;;;;;10.71;100.00;95682.34;10352316;28;1977;-79
2023/04/30 20:05:41;;;;;;;;;;;;;;;10.61;100.00;95673.50;10358995;28;1896;-78
2023/04/30 20:10:45;;;;;;;;;;;;;;;10.59;100.00;95670.31;10351028;28;2047;-78
2023/04/30 20:15:48;;;;;;;;;;;;;;;10.35;100.00;95670.91;10358943;28;1923;-76
2023/04/30 20:20:51;;;;;;;;;;;;;;;10.38;100.00;95670.38;10358919;28;1865;-82
2023/04/30 20:25:53;;;;;;;;;;;;;;;10.34;100.00;95663.94;10361269;28;1905;-76
2023/04/30 20:30:56;;;;;;;;;;;;;;;10.19;100.00;95664.78;10350497;28;1941;-79
2023/04/30 20:35:59;;;;;;;;;;;;;;;10.23;100.00;95663.16;10364479;28;2012;-75
2023/04/30 20:41:02;;;;;;;;;;;;;;;10.10;100.00;95652.16;10342789;28;2030;-77
2023/04/30 20:46:04;;;;;;;;;;;;;;;10.03;100.00;95645.19;10347601;28;2095;-79
2023/04/30 20:51:07;;;;;;;;;;;;;;;9.93;100.00;95641.75;10352395;28;4887;-78
2023/04/30 20:56:10;;;;;;;;;;;;;;;9.94;100.00;95643.38;10356080;28;1976;-76
2023/04/30 21:01:13;;;;;;;;;;;;;;;9.84;100.00;95638.81;10359346;28;1996;-74
2023/04/30 21:06:16;;;;;;;;;;;;;;;9.79;100.00;95646.06;10354502;28;1959;-76
2023/04/30 21:11:19;;;;;;;;;;;;;;;9.68;100.00;95640.72;10354559;28;1858;-75
2023/04/30 21:16:22;;;;;;;;;;;;;;;9.64;100.00;95645.00;10353712;28;2064;-74
2023/04/30 21:21:24;;;;;;;;;;;;;;;9.61;100.00;95636.72;10351710;28;1857;-74
2023/04/30 21:26:26;;;;;;;;;;;;;;;9.54;100.00;95638.84;10371705;28;1896;-75
2023/04/30 21:31:29;;;;;;;;;;;;;;;9.54;100.00;95628.91;10366875;28;1879;-76
2023/04/30 21:36:31;;;;;;;;;;;;;;;9.44;100.00;95626.25;10356633;28;1961;-76
2023/04/30 21:41:34;;;;;;;;;;;;;;;9.43;100.00;95625.47;10356344;28;1889;-75
2023/04/30 21:46:37;;;;;;;;;;;;;;;9.39;100.00;95626.25;10354077;28;2076;-75
2023/04/30 21:51:39;;;;;;;;;;;;;;;9.40;100.00;95620.63;10356606;28;4895;-74
2023/04/30 21:56:41;;;;;;;;;;;;;;;9.34;100.00;95624.38;10370514;28;1914;-75
2023/04/30 22:01:44;;;;;;;;;;;;;;;9.26;100.00;95621.44;10366202;28;1884;-75
2023/04/30 22:06:47;;;;;;;;;;;;;;;9.18;100.00;95620.09;10347116;28;1855;-76
2023/04/30 22:11:50;;;;;;;;;;;;;;;9.23;100.00;95605.91;10370244;28;2019;-76
2023/04/30 22:16:53;;;;;;;;;;;;;;;9.21;100.00;95603.47;10355818;28;1977;-76
2023/04/30 22:21:55;;;;;;;;;;;;;;;9.12;100.00;95603.19;10353747;28;2075;-76
2023/04/30 22:26:57;;;;;;;;;;;;;;;9.14;100.00;95595.69;10355760;28;1877;-75
2023/04/30 22:32:00;;;;;;;;;;;;;;;9.08;100.00;95599.44;10356404;28;2103;-76
2023/04/30 22:37:03;;;;;;;;;;;;;;;9.12;100.00;95589.00;10351029;28;1914;-78
2023/04/30 22:42:05;;;;;;;;;;;;;;;9.14;100.00;95578.78;10347937;28;1995;-77
2023/04/30 22:47:08;;;;;;;;;;;;;;;9.16;100.00;95569.41;10349559;28;2063;-75
2023/04/30 22:52:10;;;;;;;;;;;;;;;9.12;100.00;95573.69;10348207;28;4923;-76
2023/04/30 22:57:13;;;;;;;;;;;;;;;9.03;100.00;95569.94;10357885;28;2003;-75
2023/04/30 23:02:15;;;;;;;;;;;;;;;9.12;100.00;95572.91;10352787;28;1906;-78
2023/04/30 23:07:18;;;;;;;;;;;;;;;9.06;100.00;95568.63;10352470;28;2039;-75
2023/04/30 23:12:21;;;;;;;;;;;;;;;9.05;100.00;95558.97;10358529;28;1941;-75
2023/04/30 23:17:23;;;;;;;;;;;;;;;9.00;100.00;95557.09;10349741;28;1992;-76
2023/04/30 23:22:26;;;;;;;;;;;;;;;8.96;100.00;95547.16;10352132;28;1888;-75
2023/04/30 23:27:29;;;;;;;;;;;;;;;8.96;100.00;95547.97;10356251;28;1851;-74
2023/04/30 23:32:32;;;;;;;;;;;;;;;8.88;100.00;95546.63;10354006;28;1857;-75
2023/04/30 23:37:34;;;;;;;;;;;;;;;8.85;100.00;95541.81;10351668;28;1996;-76
2023/04/30 23:42:37;;;;;;;;;;;;;;;8.84;100.00;95536.69;10346455;28;1897;-75
2023/04/30 23:47:39;;;;;;;;;;;;;;;8.75;100.00;95538.31;10349671;28;1904;-78
2023/04/30 23:52:42;;;;;;;;;;;;;;;8.82;100.00;95536.16;10353404;28;4812;-76
2023/04/30 23:57:45;;;;;;;;;;;;;;;8.71;100.00;95529.19;10351857;28;2142;-75
